Time;durP1;ratioP1;P1;durP2;ratioP2;P2;SDS_P1;SDS_P2;PMS_P1;PMS_P2;Temp;Humidity;BMP_temperature;BMP_pressure;BME280_temperature;BME280_humidity;BME280_pressure;Samples;Min_cycle;Max_cycle;Signal;HPM_P1;HPM_P2
2022/10/15 00:00:03;;;;;;;;;;;;;;;9.08;100.00;100188.63;3056759;19;20354;-54
2022/10/15 00:01:12;;;;;;;;;;;;;;;9.10;100.00;100188.53;3058130;19;19926;-50
2022/10/15 00:02:16;;;;;;;;;;;;;;;9.07;100.00;100188.72;3059194;19;19923;-50
2022/10/15 00:03:18;;;;;;;;;;;;;;;9.06;100.00;100184.38;3058013;19;20461;-52
2022/10/15 00:04:23;;;;;;;;;;;;;;;9.08;100.00;100182.44;3057758;19;20030;-55
2022/10/15 00:05:24;;;;;;;;;;;;;;;9.09;100.00;100190.34;3057533;19;19911;-51
2022/10/15 00:06:29;;;;;;;;;;;;;;;9.09;100.00;100194.81;3057755;19;19922;-52
2022/10/15 00:07:31;;;;;;;;;;;;;;;9.07;100.00;100183.38;3058014;19;19915;-52
2022/10/15 00:08:35;;;;;;;;;;;;;;;9.05;100.00;100183.50;3057669;19;19954;-55
2022/10/15 00:09:37;;;;;;;;;;;;;;;9.03;100.00;100186.25;3058136;19;19915;-54
2022/10/15 00:10:42;;;;;;;;;;;;;;;9.01;100.00;100189.94;3057756;19;19919;-52
2022/10/15 00:11:46;;;;;;;;;;;;;;;8.99;100.00;100187.38;3058207;19;19919;-51
2022/10/15 00:12:48;;;;;;;;;;;;;;;8.98;100.00;100183.00;3057070;19;19927;-55
2022/10/15 00:13:56;;;;;;;;;;;;;;;8.97;100.00;100180.44;3057906;19;20303;-53
2022/10/15 00:14:58;;;;;;;;;;;;;;;8.97;100.00;100178.63;3057883;19;19919;-50
2022/10/15 00:16:02;;;;;;;;;;;;;;;8.95;100.00;100169.88;3058144;19;19986;-53
2022/10/15 00:17:04;;;;;;;;;;;;;;;8.93;100.00;100177.13;3057471;19;20006;-52
2022/10/15 00:18:09;;;;;;;;;;;;;;;8.91;100.00;100167.50;3059074;19;19926;-52
2022/10/15 00:19:11;;;;;;;;;;;;;;;8.90;100.00;100168.44;3057614;19;19919;-53
2022/10/15 00:20:15;;;;;;;;;;;;;;;8.89;100.00;100178.22;3056674;19;20251;-51
2022/10/15 00:21:18;;;;;;;;;;;;;;;8.86;100.00;100173.09;3056932;19;20344;-52
2022/10/15 00:22:23;;;;;;;;;;;;;;;8.85;100.00;100171.38;3057841;19;19918;-52
2022/10/15 00:23:25;;;;;;;;;;;;;;;8.84;100.00;100164.34;3057643;19;19931;-53
2022/10/15 00:24:30;;;;;;;;;;;;;;;8.86;100.00;100167.75;3057918;19;19950;-51
2022/10/15 00:25:32;;;;;;;;;;;;;;;8.83;100.00;100162.63;3057476;19;20027;-50
2022/10/15 00:26:36;;;;;;;;;;;;;;;8.86;100.00;100162.44;3057669;19;20373;-55
2022/10/15 00:27:38;;;;;;;;;;;;;;;8.87;100.00;100166.81;3056718;19;19926;-51
2022/10/15 00:28:43;;;;;;;;;;;;;;;8.90;100.00;100163.13;3057598;19;20338;-49
2022/10/15 00:29:45;;;;;;;;;;;;;;;8.89;100.00;100162.28;3056579;19;19930;-51
2022/10/15 00:30:49;;;;;;;;;;;;;;;8.90;100.00;100155.16;3056922;19;19923;-50
2022/10/15 00:31:51;;;;;;;;;;;;;;;8.90;100.00;100157.81;3056761;19;19919;-52
2022/10/15 00:32:56;;;;;;;;;;;;;;;8.90;100.00;100161.31;3056590;19;19918;-52
2022/10/15 00:33:58;;;;;;;;;;;;;;;8.91;100.00;100165.69;3056732;19;19926;-55
2022/10/15 00:35:03;;;;;;;;;;;;;;;8.90;100.00;100157.81;3055283;19;19967;-52
2022/10/15 00:36:06;;;;;;;;;;;;;;;8.90;100.00;100158.66;3056629;19;19923;-50
2022/10/15 00:37:11;;;;;;;;;;;;;;;8.92;100.00;100150.59;3057808;19;19926;-51
2022/10/15 00:38:12;;;;;;;;;;;;;;;8.89;100.00;100151.63;3056614;19;20297;-53
2022/10/15 00:39:17;;;;;;;;;;;;;;;8.89;100.00;100148.97;3056880;19;19936;-49
2022/10/15 00:40:20;;;;;;;;;;;;;;;8.92;100.00;100148.78;3056519;19;19934;-50
2022/10/15 00:41:29;;;;;;;;;;;;;;;8.91;100.00;100149.72;3056859;19;19990;-49
2022/10/15 00:42:31;;;;;;;;;;;;;;;8.89;100.00;100151.63;3057731;19;19970;-54
2022/10/15 00:43:37;;;;;;;;;;;;;;;8.91;100.00;100155.06;3056313;19;19957;-49
2022/10/15 00:44:46;;;;;;;;;;;;;;;8.91;100.00;100149.72;3056577;19;19940;-49
2022/10/15 00:45:50;;;;;;;;;;;;;;;8.90;100.00;100142.69;3057114;19;19919;-51
2022/10/15 00:46:53;;;;;;;;;;;;;;;8.90;100.00;100148.03;3057587;19;20004;-55
2022/10/15 00:47:58;;;;;;;;;;;;;;;8.90;100.00;100145.34;3056549;19;19915;-53
2022/10/15 00:49:06;;;;;;;;;;;;;;;8.90;100.00;100140.03;3056368;19;20274;-54
2022/10/15 00:50:13;;;;;;;;;;;;;;;8.91;100.00;100138.22;3056411;19;19926;-53
2022/10/15 00:51:16;;;;;;;;;;;;;;;8.91;100.00;100139.09;3056649;19;19927;-51
2022/10/15 00:52:22;;;;;;;;;;;;;;;8.90;100.00;100137.38;3056307;19;19927;-50
2022/10/15 00:53:24;;;;;;;;;;;;;;;8.91;100.00;100139.09;3055874;19;20326;-51
2022/10/15 00:54:29;;;;;;;;;;;;;;;8.89;100.00;100143.63;3056362;19;20287;-50
2022/10/15 00:55:31;;;;;;;;;;;;;;;8.87;100.00;100145.53;3056462;19;19946;-50
2022/10/15 00:56:35;;;;;;;;;;;;;;;8.87;100.00;100145.53;3056171;19;19919;-51
2022/10/15 00:57:37;;;;;;;;;;;;;;;8.87;100.00;100142.00;3056264;19;20647;-51
2022/10/15 00:58:42;;;;;;;;;;;;;;;8.87;100.00;100137.56;3056555;19;19927;-51
2022/10/15 00:59:46;;;;;;;;;;;;;;;8.86;100.00;100149.13;3056444;19;20342;-53
2022/10/15 01:00:51;;;;;;;;;;;;;;;8.87;100.00;100150.84;3056152;19;19927;-54
2022/10/15 01:01:53;;;;;;;;;;;;;;;8.87;100.00;100142.88;3056230;19;20380;-53
2022/10/15 01:02:58;;;;;;;;;;;;;;;8.86;100.00;100146.47;3056057;19;19914;-53
2022/10/15 01:03:59;;;;;;;;;;;;;;;8.86;100.00;100143.81;3056253;19;19930;-48
2022/10/15 01:05:04;;;;;;;;;;;;;;;8.86;100.00;100150.94;3056128;19;20430;-54
2022/10/15 01:06:06;;;;;;;;;;;;;;;8.85;100.00;100143.91;3056306;19;19927;-50
2022/10/15 01:07:10;;;;;;;;;;;;;;;8.84;100.00;100147.50;3056021;19;19983;-55
2022/10/15 01:08:12;;;;;;;;;;;;;;;8.84;100.00;100148.38;3056200;19;19990;-54
2022/10/15 01:09:17;;;;;;;;;;;;;;;8.83;100.00;100156.44;3056901;19;19919;-50
2022/10/15 01:10:19;;;;;;;;;;;;;;;8.81;100.00;100153.91;3057099;19;20551;-51
2022/10/15 01:11:45;;;;;;;;;;;;;;;8.79;100.00;100144.28;3055922;19;20253;-53
2022/10/15 01:12:53;;;;;;;;;;;;;;;8.77;100.00;100147.03;3057355;19;20011;-53
2022/10/15 01:14:06;;;;;;;;;;;;;;;8.76;100.00;100142.66;3055382;19;20339;-51
2022/10/15 01:15:12;;;;;;;;;;;;;;;8.76;100.00;100140.00;3056164;19;19907;-53
2022/10/15 01:16:22;;;;;;;;;;;;;;;8.76;100.00;100134.69;3056318;19;20335;-53
2022/10/15 01:17:26;;;;;;;;;;;;;;;8.74;100.00;100136.56;3056038;19;19943;-51
2022/10/15 01:18:34;;;;;;;;;;;;;;;8.77;100.00;100140.84;3056248;19;19979;-50
2022/10/15 01:19:44;;;;;;;;;;;;;;;8.76;100.00;100145.31;3056112;19;19950;-51
2022/10/15 01:20:50;;;;;;;;;;;;;;;8.79;100.00;100150.47;3056240;19;19914;-54
2022/10/15 01:22:12;;;;;;;;;;;;;;;8.79;100.00;100139.81;3055951;19;20258;-52
2022/10/15 01:23:14;;;;;;;;;;;;;;;8.79;100.00;100145.16;3055939;19;20370;-52
2022/10/15 01:24:34;;;;;;;;;;;;;;;8.80;100.00;100143.34;3055950;19;20381;-51
2022/10/15 01:25:40;;;;;;;;;;;;;;;8.79;100.00;100149.59;3055792;19;20354;-48
2022/10/15 01:26:53;;;;;;;;;;;;;;;8.77;100.00;100147.03;3056212;19;19927;-54
2022/10/15 01:28:04;;;;;;;;;;;;;;;8.76;100.00;100144.47;3055348;19;19926;-51
2022/10/15 01:29:05;;;;;;;;;;;;;;;8.74;100.00;100139.22;3055997;19;19963;-50
2022/10/15 01:30:29;;;;;;;;;;;;;;;8.73;100.00;100144.63;3055773;19;20593;-52
2022/10/15 01:31:40;;;;;;;;;;;;;;;8.69;100.00;100143.97;3055733;19;20015;-52
2022/10/15 01:32:45;;;;;;;;;;;;;;;8.67;100.00;100135.25;3055840;19;19911;-49
2022/10/15 01:34:03;;;;;;;;;;;;;;;8.66;100.00;100138.84;3056104;19;19922;-52
2022/10/15 01:35:22;;;;;;;;;;;;;;;8.66;100.00;100138.84;3055703;19;19922;-51
2022/10/15 01:36:30;;;;;;;;;;;;;;;8.65;100.00;100137.13;3055853;19;19923;-51
2022/10/15 01:37:31;;;;;;;;;;;;;;;8.63;100.00;100139.00;3054502;19;19944;-50
2022/10/15 01:38:45;;;;;;;;;;;;;;;8.61;100.00;100146.22;3055727;19;19934;-51
2022/10/15 01:40:03;;;;;;;;;;;;;;;8.60;100.00;100139.19;3055908;19;19925;-53
2022/10/15 01:41:12;;;;;;;;;;;;;;;8.58;100.00;100141.06;3055784;19;19931;-50
2022/10/15 01:42:18;;;;;;;;;;;;;;;8.56;100.00;100141.19;3055667;19;19925;-51
2022/10/15 01:43:24;;;;;;;;;;;;;;;8.56;100.00;100143.00;3055886;19;19922;-53
2022/10/15 01:45:13;;;;;;;;;;;;;;;8.55;100.00;100143.94;3054892;19;20333;-53
2022/10/15 01:46:42;;;;;;;;;;;;;;;8.53;100.00;100133.38;3055609;19;20380;-53
2022/10/15 01:47:56;;;;;;;;;;;;;;;8.51;100.00;100131.75;3055905;19;20334;-51
2022/10/15 01:48:58;;;;;;;;;;;;;;;8.51;100.00;100137.06;3055616;19;19936;-52
2022/10/15 01:50:02;;;;;;;;;;;;;;;8.48;100.00;100124.81;3055843;19;19930;-52
2022/10/15 01:51:05;;;;;;;;;;;;;;;8.48;100.00;100134.59;3055347;19;20032;-51
2022/10/15 01:52:11;;;;;;;;;;;;;;;8.45;100.00;100129.47;3055851;19;19923;-51
2022/10/15 01:53:17;;;;;;;;;;;;;;;8.45;100.00;100132.13;3055570;19;19997;-53
2022/10/15 01:54:21;;;;;;;;;;;;;;;8.43;100.00;100126.03;3054745;19;19931;-51
2022/10/15 01:55:25;;;;;;;;;;;;;;;8.43;100.00;100134.03;3055691;19;19929;-52
2022/10/15 01:56:30;;;;;;;;;;;;;;;8.41;100.00;100128.78;3055855;19;19942;-50
2022/10/15 01:57:32;;;;;;;;;;;;;;;8.39;100.00;100129.81;3055840;19;19958;-54
2022/10/15 01:58:39;;;;;;;;;;;;;;;8.38;100.00;100128.09;3055418;19;19979;-51
2022/10/15 01:59:41;;;;;;;;;;;;;;;8.38;100.00;100122.78;3055752;19;19982;-52
2022/10/15 02:00:46;;;;;;;;;;;;;;;8.39;100.00;100125.34;3055474;19;20317;-51
2022/10/15 02:01:48;;;;;;;;;;;;;;;8.41;100.00;100128.78;3055310;19;20335;-54
2022/10/15 02:02:52;;;;;;;;;;;;;;;8.42;100.00;100124.31;3055510;19;19992;-53
2022/10/15 02:03:54;;;;;;;;;;;;;;;8.42;100.00;100113.69;3055847;19;19930;-53
2022/10/15 02:04:59;;;;;;;;;;;;;;;8.44;100.00;100117.13;3056200;19;19946;-51
2022/10/15 02:06:05;;;;;;;;;;;;;;;8.45;100.00;100108.19;3055495;19;19919;-53
2022/10/15 02:07:29;;;;;;;;;;;;;;;8.44;100.00;100109.16;3055192;19;20437;-51
2022/10/15 02:08:38;;;;;;;;;;;;;;;8.44;100.00;100103.81;3055800;19;19918;-54
2022/10/15 02:10:02;;;;;;;;;;;;;;;8.43;100.00;100108.28;3055303;19;19953;-52
2022/10/15 02:11:16;;;;;;;;;;;;;;;8.44;100.00;100109.16;3055176;19;20078;-51
2022/10/15 02:12:20;;;;;;;;;;;;;;;8.45;100.00;100103.72;3055486;19;19926;-56
2022/10/15 02:13:42;;;;;;;;;;;;;;;8.46;100.00;100100.09;3055900;19;19967;-51
2022/10/15 02:15:00;;;;;;;;;;;;;;;8.45;100.00;100097.56;3055497;19;19925;-52
2022/10/15 02:16:11;;;;;;;;;;;;;;;8.45;100.00;100094.91;3054706;19;19930;-51
2022/10/15 02:17:16;;;;;;;;;;;;;;;8.42;100.00;100087.09;3055523;19;19918;-52
2022/10/15 02:18:21;;;;;;;;;;;;;;;8.45;100.00;100092.25;3055258;19;19933;-54
2022/10/15 02:19:46;;;;;;;;;;;;;;;8.44;100.00;100095.84;3055180;19;19922;-54
2022/10/15 02:21:02;;;;;;;;;;;;;;;8.43;100.00;100088.81;3054681;19;20016;-51
2022/10/15 02:22:12;;;;;;;;;;;;;;;8.43;100.00;100092.34;3054959;19;20497;-52
2022/10/15 02:23:16;;;;;;;;;;;;;;;8.44;100.00;100088.72;3055527;19;20297;-53
2022/10/15 02:24:22;;;;;;;;;;;;;;;8.43;100.00;100086.16;3056138;19;19950;-48
2022/10/15 02:25:23;;;;;;;;;;;;;;;8.45;100.00;100086.94;3055159;19;19970;-54
2022/10/15 02:26:29;;;;;;;;;;;;;;;8.43;100.00;100080.84;3055336;19;20366;-53
2022/10/15 02:27:32;;;;;;;;;;;;;;;8.43;100.00;100083.50;3054631;19;19934;-49
2022/10/15 02:28:36;;;;;;;;;;;;;;;8.43;100.00;100087.00;3055125;19;20602;-53
2022/10/15 02:29:38;;;;;;;;;;;;;;;8.44;100.00;100079.91;3055343;19;19923;-52
2022/10/15 02:30:43;;;;;;;;;;;;;;;8.44;100.00;100085.22;3054857;19;20434;-53
2022/10/15 02:31:46;;;;;;;;;;;;;;;8.44;100.00;100085.22;3055284;19;19930;-51
2022/10/15 02:32:52;;;;;;;;;;;;;;;8.43;100.00;100078.19;3055102;19;19933;-53
2022/10/15 02:33:56;;;;;;;;;;;;;;;8.42;100.00;100081.78;3055284;19;19926;-52
2022/10/15 02:35:00;;;;;;;;;;;;;;;8.41;100.00;100075.59;3054592;19;19926;-53
2022/10/15 02:36:05;;;;;;;;;;;;;;;8.40;100.00;100083.66;3055094;19;19996;-49
2022/10/15 02:37:07;;;;;;;;;;;;;;;8.42;100.00;100079.13;3055278;19;20034;-50
2022/10/15 02:38:12;;;;;;;;;;;;;;;8.42;100.00;100081.78;3054851;19;20425;-50
2022/10/15 02:39:37;;;;;;;;;;;;;;;8.42;100.00;100087.09;3055222;19;19923;-50
2022/10/15 02:40:39;;;;;;;;;;;;;;;8.42;100.00;100087.09;3055067;19;19922;-52
2022/10/15 02:41:43;;;;;;;;;;;;;;;8.44;100.00;100082.56;3055962;19;20357;-50
2022/10/15 02:42:48;;;;;;;;;;;;;;;8.43;100.00;100083.50;3054949;19;20281;-50
2022/10/15 02:43:52;;;;;;;;;;;;;;;8.41;100.00;100080.94;3054997;19;20343;-52
2022/10/15 02:44:55;;;;;;;;;;;;;;;8.43;100.00;100086.16;3054669;19;20525;-51
2022/10/15 02:45:59;;;;;;;;;;;;;;;8.43;100.00;100088.81;3055129;19;19915;-52
2022/10/15 02:47:01;;;;;;;;;;;;;;;8.43;100.00;100089.66;3054994;19;19915;-54
2022/10/15 02:48:06;;;;;;;;;;;;;;;8.37;100.00;100075.88;3055064;19;20320;-51
2022/10/15 02:49:08;;;;;;;;;;;;;;;8.43;100.00;100079.03;3055374;19;20061;-55
2022/10/15 02:50:13;;;;;;;;;;;;;;;8.44;100.00;100079.91;3058378;19;19937;-51
2022/10/15 02:51:15;;;;;;;;;;;;;;;8.47;100.00;100080.53;3058015;19;19926;-51
2022/10/15 02:52:19;;;;;;;;;;;;;;;8.49;100.00;100077.81;3058452;19;19919;-56
2022/10/15 02:53:24;;;;;;;;;;;;;;;8.51;100.00;100073.25;3058139;19;19915;-54
2022/10/15 02:54:26;;;;;;;;;;;;;;;8.53;100.00;100076.69;3058195;19;20881;-51
2022/10/15 02:55:31;;;;;;;;;;;;;;;8.54;100.00;100079.25;3056613;19;20285;-54
2022/10/15 02:56:33;;;;;;;;;;;;;;;8.56;100.00;100084.47;3058354;19;19926;-53
2022/10/15 02:57:38;;;;;;;;;;;;;;;8.54;100.00;100081.06;3058095;19;19965;-53
2022/10/15 02:58:41;;;;;;;;;;;;;;;8.56;100.00;100084.47;3058217;19;19938;-55
2022/10/15 02:59:45;;;;;;;;;;;;;;;8.55;100.00;100083.63;3057576;19;19919;-55
2022/10/15 03:00:48;;;;;;;;;;;;;;;8.55;100.00;100077.44;3058141;19;19922;-55
2022/10/15 03:01:52;;;;;;;;;;;;;;;8.55;100.00;100074.78;3057997;19;19931;-50
2022/10/15 03:02:55;;;;;;;;;;;;;;;8.56;100.00;100073.84;3058075;19;19922;-51
2022/10/15 03:03:59;;;;;;;;;;;;;;;8.57;100.00;100081.69;3057949;19;19935;-55
2022/10/15 03:06:35;;;;;;;;;;;;;;;8.61;100.00;100069.94;3054777;19;19919;-51
2022/10/15 03:07:37;;;;;;;;;;;;;;;8.64;100.00;100068.91;3058789;19;19923;-49
2022/10/15 03:08:41;;;;;;;;;;;;;;;8.67;100.00;100076.72;3059360;19;20352;-51
2022/10/15 03:09:43;;;;;;;;;;;;;;;8.70;100.00;100070.31;3057587;19;20000;-55
2022/10/15 03:10:49;;;;;;;;;;;;;;;8.71;100.00;100078.22;3057881;19;20378;-51
2022/10/15 03:11:51;;;;;;;;;;;;;;;8.74;100.00;100078.03;3057532;19;20290;-52
2022/10/15 03:12:57;;;;;;;;;;;;;;;8.76;100.00;100081.47;3057988;19;19930;-53
2022/10/15 03:13:59;;;;;;;;;;;;;;;8.78;100.00;100079.56;3057811;19;19915;-52
2022/10/15 03:15:04;;;;;;;;;;;;;;;8.79;100.00;100075.97;3057287;19;20227;-52
2022/10/15 03:16:06;;;;;;;;;;;;;;;8.81;100.00;100068.75;3058811;19;19918;-49
2022/10/15 03:17:12;;;;;;;;;;;;;;;8.82;100.00;100064.25;3058402;19;20426;-54
2022/10/15 03:18:14;;;;;;;;;;;;;;;8.85;100.00;100067.59;3058124;19;19922;-52
2022/10/15 03:19:19;;;;;;;;;;;;;;;8.87;100.00;100063.03;3057598;19;19918;-54
2022/10/15 03:20:21;;;;;;;;;;;;;;;8.90;100.00;100068.19;3058016;19;19919;-53
2022/10/15 03:21:29;;;;;;;;;;;;;;;8.91;100.00;100064.59;3057546;19;19923;-49
2022/10/15 03:22:37;;;;;;;;;;;;;;;8.94;100.00;100063.50;3057863;19;20360;-55
2022/10/15 03:23:42;;;;;;;;;;;;;;;8.97;100.00;100064.19;3056998;19;19919;-52
2022/10/15 03:24:50;;;;;;;;;;;;;;;9.00;100.00;100058.69;3056417;19;19927;-51
2022/10/15 03:25:59;;;;;;;;;;;;;;;9.03;100.00;100058.50;3057570;19;19922;-53
2022/10/15 03:27:02;;;;;;;;;;;;;;;9.07;100.00;100058.28;3057479;19;19919;-49
2022/10/15 03:28:06;;;;;;;;;;;;;;;9.11;100.00;100065.13;3056983;19;19928;-51
2022/10/15 03:29:15;;;;;;;;;;;;;;;9.12;100.00;100050.88;3057781;19;19923;-53
2022/10/15 03:30:23;;;;;;;;;;;;;;;9.18;100.00;100056.66;3057293;19;19943;-54
2022/10/15 03:31:28;;;;;;;;;;;;;;;9.20;100.00;100051.25;3057564;19;19927;-50
2022/10/15 03:32:32;;;;;;;;;;;;;;;9.24;100.00;100047.44;3057232;19;20331;-54
2022/10/15 03:33:40;;;;;;;;;;;;;;;9.27;100.00;100044.59;3057588;19;19918;-52
2022/10/15 03:34:42;;;;;;;;;;;;;;;9.32;100.00;100047.81;3057198;19;20306;-54
2022/10/15 03:35:50;;;;;;;;;;;;;;;9.36;100.00;100049.34;3056754;19;19930;-52
2022/10/15 03:36:55;;;;;;;;;;;;;;;9.41;100.00;100046.41;3057630;19;19922;-53
2022/10/15 03:37:57;;;;;;;;;;;;;;;9.45;100.00;100043.41;3057602;19;19982;-50
2022/10/15 03:39:01;;;;;;;;;;;;;;;9.49;100.00;100049.41;3057224;19;19919;-55
2022/10/15 03:40:04;;;;;;;;;;;;;;;9.51;100.00;100048.38;3057426;19;19925;-52
2022/10/15 03:41:13;;;;;;;;;;;;;;;9.53;100.00;100041.13;3058479;19;19919;-51
2022/10/15 03:42:16;;;;;;;;;;;;;;;9.55;100.00;100044.53;3057111;19;19918;-49
2022/10/15 03:43:21;;;;;;;;;;;;;;;9.58;100.00;100031.03;3057701;19;19954;-50
2022/10/15 03:44:23;;;;;;;;;;;;;;;9.60;100.00;100047.75;3058053;19;19922;-55
2022/10/15 03:45:38;;;;;;;;;;;;;;;9.61;100.00;100033.50;3057352;19;19930;-50
2022/10/15 03:46:53;;;;;;;;;;;;;;;9.64;100.00;100033.31;3057171;19;19922;-55
2022/10/15 03:47:58;;;;;;;;;;;;;;;9.68;100.00;100034.78;3057335;19;19923;-53
2022/10/15 03:49:06;;;;;;;;;;;;;;;9.69;100.00;100028.50;3057142;19;20022;-53
2022/10/15 03:50:09;;;;;;;;;;;;;;;9.71;100.00;100029.28;3057330;19;19923;-52
2022/10/15 03:51:14;;;;;;;;;;;;;;;9.72;100.00;100033.66;3056561;19;19951;-51
2022/10/15 03:52:26;;;;;;;;;;;;;;;9.74;100.00;100029.09;3057534;19;19926;-50
2022/10/15 03:53:31;;;;;;;;;;;;;;;9.73;100.00;100030.03;3057119;19;19915;-50
2022/10/15 03:54:33;;;;;;;;;;;;;;;9.73;100.00;100027.38;3057252;19;20007;-50
2022/10/15 03:55:38;;;;;;;;;;;;;;;9.79;100.00;100019.91;3056857;19;19919;-50
2022/10/15 03:56:41;;;;;;;;;;;;;;;9.81;100.00;100023.34;3058082;19;20287;-53
2022/10/15 03:58:04;;;;;;;;;;;;;;;9.82;100.00;100022.38;3056845;19;19918;-53
2022/10/15 03:59:06;;;;;;;;;;;;;;;9.83;100.00;100016.94;3057394;19;19919;-50
2022/10/15 04:00:11;;;;;;;;;;;;;;;9.85;100.00;100031.03;3055713;19;19923;-49
2022/10/15 04:01:13;;;;;;;;;;;;;;;9.89;100.00;100026.38;3058312;19;19919;-53
2022/10/15 04:02:18;;;;;;;;;;;;;;;9.91;100.00;100030.63;3057366;19;19927;-51
2022/10/15 04:03:20;;;;;;;;;;;;;;;9.93;100.00;100028.72;3056675;19;19944;-51
2022/10/15 04:04:27;;;;;;;;;;;;;;;9.94;100.00;100029.56;3055191;19;19941;-51
2022/10/15 04:05:29;;;;;;;;;;;;;;;9.97;100.00;100029.38;3057687;19;19919;-50
2022/10/15 04:06:39;;;;;;;;;;;;;;;9.99;100.00;100028.31;3057584;19;20300;-54
2022/10/15 04:07:46;;;;;;;;;;;;;;;10.01;100.00;100031.75;3057610;19;19923;-49
2022/10/15 04:08:55;;;;;;;;;;;;;;;10.04;100.00;100038.66;3056936;19;20027;-52
2022/10/15 04:09:59;;;;;;;;;;;;;;;10.06;100.00;100039.41;3057054;19;19931;-51
2022/10/15 04:11:10;;;;;;;;;;;;;;;10.11;100.00;100026.66;3057308;19;19919;-53
2022/10/15 04:12:12;;;;;;;;;;;;;;;10.14;100.00;100036.25;3057735;19;20042;-51
2022/10/15 04:13:17;;;;;;;;;;;;;;;10.18;100.00;100035.06;3057610;19;20222;-51
2022/10/15 04:14:19;;;;;;;;;;;;;;;10.20;100.00;100038.53;3058465;19;19914;-49
2022/10/15 04:15:23;;;;;;;;;;;;;;;10.21;100.00;100033.09;3058036;19;19919;-51
2022/10/15 04:16:29;;;;;;;;;;;;;;;10.23;100.00;100031.19;3057751;19;19915;-50
2022/10/15 04:17:34;;;;;;;;;;;;;;;10.24;100.00;100030.22;3058350;19;20314;-51
2022/10/15 04:18:36;;;;;;;;;;;;;;;10.25;100.00;100033.75;3057025;19;20397;-53
2022/10/15 04:19:41;;;;;;;;;;;;;;;10.26;100.00;100031.00;3056855;19;19918;-54
2022/10/15 04:20:43;;;;;;;;;;;;;;;10.28;100.00;100033.53;3056883;19;20342;-52
2022/10/15 04:21:50;;;;;;;;;;;;;;;10.27;100.00;100032.66;3056916;19;19950;-54
2022/10/15 04:23:03;;;;;;;;;;;;;;;10.31;100.00;100038.66;3057010;19;19990;-53
2022/10/15 04:24:08;;;;;;;;;;;;;;;10.31;100.00;100039.50;3056918;19;19931;-52
2022/10/15 04:25:13;;;;;;;;;;;;;;;10.33;100.00;100036.75;3056990;19;20737;-50
2022/10/15 04:26:18;;;;;;;;;;;;;;;10.33;100.00;100037.59;3056300;19;20583;-54
2022/10/15 04:27:20;;;;;;;;;;;;;;;10.34;100.00;100039.31;3056901;19;19930;-51
2022/10/15 04:28:25;;;;;;;;;;;;;;;10.38;100.00;100040.81;3056630;19;19971;-51
2022/10/15 04:29:27;;;;;;;;;;;;;;;10.40;100.00;100040.69;3057175;19;19916;-54
2022/10/15 04:30:42;;;;;;;;;;;;;;;10.42;100.00;100042.31;3058451;19;19940;-55
2022/10/15 04:31:46;;;;;;;;;;;;;;;10.43;100.00;100041.34;3056290;19;19943;-54
2022/10/15 04:32:53;;;;;;;;;;;;;;;10.44;100.00;100040.41;3056452;19;19990;-50
2022/10/15 04:33:55;;;;;;;;;;;;;;;10.46;100.00;100033.16;3056916;19;19915;-52
2022/10/15 04:34:59;;;;;;;;;;;;;;;10.49;100.00;100042.75;3056801;19;19923;-50
2022/10/15 04:36:20;;;;;;;;;;;;;;;10.52;100.00;100047.00;3056297;19;20287;-50
2022/10/15 04:37:36;;;;;;;;;;;;;;;10.54;100.00;100045.94;3057191;19;19922;-50
2022/10/15 04:38:40;;;;;;;;;;;;;;;10.56;100.00;100041.38;3056497;19;19918;-52
2022/10/15 04:39:42;;;;;;;;;;;;;;;10.58;100.00;100036.78;3056976;19;19931;-53
2022/10/15 04:40:49;;;;;;;;;;;;;;;10.61;100.00;100035.72;3055640;19;19923;-54
2022/10/15 04:41:51;;;;;;;;;;;;;;;10.63;100.00;100041.78;3058295;19;20246;-53
2022/10/15 04:43:02;;;;;;;;;;;;;;;10.65;100.00;100037.19;3056320;19;19971;-53
2022/10/15 04:44:04;;;;;;;;;;;;;;;10.66;100.00;100037.09;3056866;19;20358;-55
2022/10/15 04:45:09;;;;;;;;;;;;;;;10.67;100.00;100028.13;3056495;19;19942;-50
2022/10/15 04:46:12;;;;;;;;;;;;;;;10.70;100.00;100035.09;3056884;19;19982;-53
2022/10/15 04:47:17;;;;;;;;;;;;;;;10.71;100.00;100031.47;3057960;19;19943;-55
2022/10/15 04:48:24;;;;;;;;;;;;;;;10.71;100.00;100032.31;3056855;19;19915;-51
2022/10/15 04:49:29;;;;;;;;;;;;;;;10.73;100.00;100037.53;3056252;19;19944;-55
2022/10/15 04:50:31;;;;;;;;;;;;;;;10.73;100.00;100030.41;3056634;19;19918;-53
2022/10/15 04:51:55;;;;;;;;;;;;;;;10.76;100.00;100034.63;3057024;19;19934;-57
2022/10/15 04:53:02;;;;;;;;;;;;;;;10.76;100.00;100039.97;3057304;19;19943;-55
2022/10/15 04:54:10;;;;;;;;;;;;;;;10.76;100.00;100038.16;3056466;19;19926;-56
2022/10/15 04:55:30;;;;;;;;;;;;;;;10.76;100.00;100048.84;3058172;19;20015;-50
2022/10/15 04:56:34;;;;;;;;;;;;;;;10.76;100.00;100045.31;3056365;19;19923;-55
2022/10/15 04:57:38;;;;;;;;;;;;;;;10.76;100.00;100050.66;3056182;19;20313;-54
2022/10/15 04:58:41;;;;;;;;;;;;;;;10.76;100.00;100056.00;3056637;19;19943;-49
2022/10/15 04:59:46;;;;;;;;;;;;;;;10.75;100.00;100054.28;3055833;19;20354;-52
2022/10/15 05:01:05;;;;;;;;;;;;;;;10.77;100.00;100052.38;3056269;19;19951;-53
2022/10/15 05:02:17;;;;;;;;;;;;;;;10.75;100.00;100051.63;3054973;19;19926;-50
2022/10/15 05:03:27;;;;;;;;;;;;;;;10.76;100.00;100050.66;3057880;19;19923;-55
2022/10/15 05:04:36;;;;;;;;;;;;;;;10.77;100.00;100049.69;3055957;19;20376;-52
2022/10/15 05:05:41;;;;;;;;;;;;;;;10.77;100.00;100047.88;3055921;19;20325;-52
2022/10/15 05:06:46;;;;;;;;;;;;;;;10.79;100.00;100053.13;3056245;19;19950;-50
2022/10/15 05:07:51;;;;;;;;;;;;;;;10.81;100.00;100056.53;3056048;19;20008;-49
2022/10/15 05:08:56;;;;;;;;;;;;;;;10.81;100.00;100049.38;3056244;19;20037;-56
2022/10/15 05:10:01;;;;;;;;;;;;;;;10.82;100.00;100060.94;3057602;19;20435;-51
2022/10/15 05:11:07;;;;;;;;;;;;;;;10.83;100.00;100067.97;3056254;19;19919;-51
2022/10/15 05:12:09;;;;;;;;;;;;;;;10.84;100.00;100059.00;3053060;19;20388;-51
2022/10/15 05:13:13;;;;;;;;;;;;;;;10.85;100.00;100060.72;3056971;19;19914;-55
2022/10/15 05:14:18;;;;;;;;;;;;;;;10.86;100.00;100062.44;3057005;19;19930;-51
2022/10/15 05:15:36;;;;;;;;;;;;;;;10.88;100.00;100060.47;3055967;19;19951;-53
2022/10/15 05:16:43;;;;;;;;;;;;;;;10.89;100.00;100054.19;3055249;19;19922;-52
2022/10/15 05:17:46;;;;;;;;;;;;;;;10.90;100.00;100060.38;3057154;19;19936;-54
2022/10/15 05:18:52;;;;;;;;;;;;;;;10.86;100.00;100062.44;3056751;19;19940;-56
2022/10/15 05:19:53;;;;;;;;;;;;;;;10.87;100.00;100064.09;3057362;19;20003;-54
2022/10/15 05:21:03;;;;;;;;;;;;;;;10.87;100.00;100069.44;3056987;19;19930;-54
2022/10/15 05:22:06;;;;;;;;;;;;;;;10.86;100.00;100072.25;3056899;19;20295;-52
2022/10/15 05:23:16;;;;;;;;;;;;;;;10.87;100.00;100064.09;3057147;19;20000;-55
2022/10/15 05:24:29;;;;;;;;;;;;;;;10.86;100.00;100073.09;3056752;19;19914;-50
2022/10/15 05:25:36;;;;;;;;;;;;;;;10.85;100.00;100076.72;3055788;19;19919;-53
2022/10/15 05:26:40;;;;;;;;;;;;;;;10.86;100.00;100077.59;3056803;19;19922;-53
2022/10/15 05:27:43;;;;;;;;;;;;;;;10.86;100.00;100081.13;3055555;19;20233;-50
2022/10/15 05:28:48;;;;;;;;;;;;;;;10.85;100.00;100076.72;3055748;19;20019;-52
2022/10/15 05:29:58;;;;;;;;;;;;;;;10.86;100.00;100083.78;3055758;19;19927;-53
2022/10/15 05:31:12;;;;;;;;;;;;;;;10.86;100.00;100081.13;3055559;19;19922;-56
2022/10/15 05:32:21;;;;;;;;;;;;;;;10.87;100.00;100090.81;3055555;19;19989;-53
2022/10/15 05:33:26;;;;;;;;;;;;;;;10.90;100.00;100087.94;3055537;19;19930;-50
2022/10/15 05:34:30;;;;;;;;;;;;;;;10.93;100.00;100085.06;3055839;19;19982;-52
2022/10/15 05:35:39;;;;;;;;;;;;;;;10.99;100.00;100084.63;3055664;19;19922;-52
2022/10/15 05:36:43;;;;;;;;;;;;;;;11.04;100.00;100081.63;3055538;19;20367;-53
2022/10/15 05:37:45;;;;;;;;;;;;;;;11.10;100.00;100079.41;3055704;19;19914;-51
2022/10/15 05:38:54;;;;;;;;;;;;;;;11.08;100.00;100067.97;3056255;19;19930;-53
2022/10/15 05:39:56;;;;;;;;;;;;;;;11.24;100.00;100077.53;3056342;19;19968;-51